sensor_id;sensor_type;location;lat;lon;timestamp;P1;durP1;ratioP1;P2;durP2;ratioP2
40284;SDS011;25997;50.214;19.354;2022-12-18T00:01:56;49.25;;;32.38;;
40284;SDS011;25997;50.214;19.354;2022-12-18T00:05:00;45.08;;;25.90;;
40284;SDS011;25997;50.214;19.354;2022-12-18T00:08:02;50.25;;;29.65;;
40284;SDS011;25997;50.214;19.354;2022-12-18T00:11:05;47.05;;;28.08;;
40284;SDS011;25997;50.214;19.354;2022-12-18T00:14:11;44.92;;;28.85;;
40284;SDS011;25997;50.214;19.354;2022-12-18T00:17:14;49.65;;;28.17;;
40284;SDS011;25997;50.214;19.354;2022-12-18T00:20:17;49.55;;;27.25;;
40284;SDS011;25997;50.214;19.354;2022-12-18T00:23:26;50.00;;;28.75;;
40284;SDS011;25997;50.214;19.354;2022-12-18T00:26:29;46.42;;;28.08;;
40284;SDS011;25997;50.214;19.354;2022-12-18T00:29:37;46.58;;;29.75;;
40284;SDS011;25997;50.214;19.354;2022-12-18T00:32:39;50.50;;;30.63;;
40284;SDS011;25997;50.214;19.354;2022-12-18T00:35:42;55.40;;;31.42;;
40284;SDS011;25997;50.214;19.354;2022-12-18T00:38:45;49.47;;;30.27;;
40284;SDS011;25997;50.214;19.354;2022-12-18T00:41:52;48.10;;;30.17;;
40284;SDS011;25997;50.214;19.354;2022-12-18T00:45:13;54.05;;;34.08;;
40284;SDS011;25997;50.214;19.354;2022-12-18T00:48:16;55.95;;;36.58;;
40284;SDS011;25997;50.214;19.354;2022-12-18T00:51:18;46.90;;;31.52;;
40284;SDS011;25997;50.214;19.354;2022-12-18T00:54:21;52.00;;;31.23;;
40284;SDS011;25997;50.214;19.354;2022-12-18T00:57:24;55.00;;;32.67;;
40284;SDS011;25997;50.214;19.354;2022-12-18T01:00:28;49.10;;;32.13;;
40284;SDS011;25997;50.214;19.354;2022-12-18T01:03:30;47.25;;;29.70;;
40284;SDS011;25997;50.214;19.354;2022-12-18T01:06:33;41.53;;;26.35;;
40284;SDS011;25997;50.214;19.354;2022-12-18T01:09:36;44.83;;;27.23;;
40284;SDS011;25997;50.214;19.354;2022-12-18T01:12:39;42.78;;;27.38;;
40284;SDS011;25997;50.214;19.354;2022-12-18T01:15:48;39.70;;;24.88;;
40284;SDS011;25997;50.214;19.354;2022-12-18T01:18:52;38.67;;;24.38;;
40284;SDS011;25997;50.214;19.354;2022-12-18T01:21:55;36.15;;;24.77;;
40284;SDS011;25997;50.214;19.354;2022-12-18T01:24:58;37.25;;;23.63;;
40284;SDS011;25997;50.214;19.354;2022-12-18T01:28:00;43.83;;;26.60;;
40284;SDS011;25997;50.214;19.354;2022-12-18T01:31:12;46.25;;;31.25;;
40284;SDS011;25997;50.214;19.354;2022-12-18T01:34:15;40.83;;;23.30;;
40284;SDS011;25997;50.214;19.354;2022-12-18T01:37:18;43.15;;;24.75;;
40284;SDS011;25997;50.214;19.354;2022-12-18T01:40:20;37.95;;;24.92;;
40284;SDS011;25997;50.214;19.354;2022-12-18T01:43:40;40.08;;;24.23;;
40284;SDS011;25997;50.214;19.354;2022-12-18T01:46:45;40.83;;;28.25;;
40284;SDS011;25997;50.214;19.354;2022-12-18T01:49:47;45.13;;;28.35;;
40284;SDS011;25997;50.214;19.354;2022-12-18T01:52:50;41.05;;;25.13;;
40284;SDS011;25997;50.214;19.354;2022-12-18T01:55:55;42.15;;;25.58;;
40284;SDS011;25997;50.214;19.354;2022-12-18T01:58:59;41.63;;;27.08;;
40284;SDS011;25997;50.214;19.354;2022-12-18T02:02:06;49.53;;;32.33;;
40284;SDS011;25997;50.214;19.354;2022-12-18T02:05:10;43.13;;;26.63;;
40284;SDS011;25997;50.214;19.354;2022-12-18T02:08:15;42.33;;;25.02;;
40284;SDS011;25997;50.214;19.354;2022-12-18T02:11:25;40.65;;;26.02;;
40284;SDS011;25997;50.214;19.354;2022-12-18T02:14:40;39.15;;;26.35;;
40284;SDS011;25997;50.214;19.354;2022-12-18T02:20:58;43.47;;;26.52;;
40284;SDS011;25997;50.214;19.354;2022-12-18T02:24:14;41.95;;;25.20;;
40284;SDS011;25997;50.214;19.354;2022-12-18T02:27:24;41.20;;;24.27;;
40284;SDS011;25997;50.214;19.354;2022-12-18T02:30:29;48.60;;;28.13;;
40284;SDS011;25997;50.214;19.354;2022-12-18T02:33:35;43.08;;;26.38;;
40284;SDS011;25997;50.214;19.354;2022-12-18T02:36:40;43.50;;;26.35;;
40284;SDS011;25997;50.214;19.354;2022-12-18T02:39:46;44.63;;;26.55;;
40284;SDS011;25997;50.214;19.354;2022-12-18T02:42:52;40.72;;;25.27;;
40284;SDS011;25997;50.214;19.354;2022-12-18T02:45:55;46.95;;;28.35;;
40284;SDS011;25997;50.214;19.354;2022-12-18T02:49:05;45.63;;;26.88;;
40284;SDS011;25997;50.214;19.354;2022-12-18T02:52:16;51.40;;;29.70;;
40284;SDS011;25997;50.214;19.354;2022-12-18T02:55:28;49.40;;;30.25;;
40284;SDS011;25997;50.214;19.354;2022-12-18T02:58:47;47.55;;;29.00;;
40284;SDS011;25997;50.214;19.354;2022-12-18T03:02:17;47.65;;;27.08;;
40284;SDS011;25997;50.214;19.354;2022-12-18T03:05:27;72.10;;;44.30;;
40284;SDS011;25997;50.214;19.354;2022-12-18T03:08:36;147.80;;;99.90;;
40284;SDS011;25997;50.214;19.354;2022-12-18T03:11:41;98.82;;;79.30;;
40284;SDS011;25997;50.214;19.354;2022-12-18T03:15:12;51.80;;;34.90;;
40284;SDS011;25997;50.214;19.354;2022-12-18T03:18:19;45.72;;;28.95;;
40284;SDS011;25997;50.214;19.354;2022-12-18T03:21:28;52.67;;;30.83;;
40284;SDS011;25997;50.214;19.354;2022-12-18T03:24:35;46.53;;;29.63;;
40284;SDS011;25997;50.214;19.354;2022-12-18T03:27:42;50.70;;;29.65;;
40284;SDS011;25997;50.214;19.354;2022-12-18T03:30:52;64.22;;;42.15;;
40284;SDS011;25997;50.214;19.354;2022-12-18T03:33:59;47.75;;;32.22;;
40284;SDS011;25997;50.214;19.354;2022-12-18T03:37:14;43.65;;;28.98;;
40284;SDS011;25997;50.214;19.354;2022-12-18T03:40:17;49.38;;;31.42;;
40284;SDS011;25997;50.214;19.354;2022-12-18T03:43:26;43.40;;;26.98;;
40284;SDS011;25997;50.214;19.354;2022-12-18T03:46:40;69.68;;;35.10;;
40284;SDS011;25997;50.214;19.354;2022-12-18T03:49:50;46.65;;;27.00;;
40284;SDS011;25997;50.214;19.354;2022-12-18T03:53:05;46.05;;;27.98;;
40284;SDS011;25997;50.214;19.354;2022-12-18T03:56:20;48.40;;;28.17;;
40284;SDS011;25997;50.214;19.354;2022-12-18T03:59:26;49.55;;;28.05;;
40284;SDS011;25997;50.214;19.354;2022-12-18T04:02:32;44.75;;;27.38;;
40284;SDS011;25997;50.214;19.354;2022-12-18T04:05:36;48.47;;;27.58;;
40284;SDS011;25997;50.214;19.354;2022-12-18T04:08:41;46.28;;;27.63;;
40284;SDS011;25997;50.214;19.354;2022-12-18T04:11:48;49.75;;;31.58;;
40284;SDS011;25997;50.214;19.354;2022-12-18T04:14:51;43.83;;;27.38;;
40284;SDS011;25997;50.214;19.354;2022-12-18T04:17:55;52.63;;;31.40;;
40284;SDS011;25997;50.214;19.354;2022-12-18T04:20:59;42.00;;;26.65;;
40284;SDS011;25997;50.214;19.354;2022-12-18T04:24:02;49.33;;;31.23;;
40284;SDS011;25997;50.214;19.354;2022-12-18T04:27:07;49.15;;;29.02;;
40284;SDS011;25997;50.214;19.354;2022-12-18T04:30:16;46.28;;;27.65;;
40284;SDS011;25997;50.214;19.354;2022-12-18T04:33:20;45.00;;;27.83;;
40284;SDS011;25997;50.214;19.354;2022-12-18T04:36:23;45.63;;;26.35;;
40284;SDS011;25997;50.214;19.354;2022-12-18T04:39:26;46.30;;;26.05;;
40284;SDS011;25997;50.214;19.354;2022-12-18T04:42:34;44.55;;;26.42;;
40284;SDS011;25997;50.214;19.354;2022-12-18T04:45:36;44.30;;;26.75;;
40284;SDS011;25997;50.214;19.354;2022-12-18T04:48:40;43.08;;;27.13;;
40284;SDS011;25997;50.214;19.354;2022-12-18T04:51:43;46.55;;;29.05;;
40284;SDS011;25997;50.214;19.354;2022-12-18T04:54:45;46.05;;;26.63;;
40284;SDS011;25997;50.214;19.354;2022-12-18T04:57:48;47.95;;;28.73;;
40284;SDS011;25997;50.214;19.354;2022-12-18T05:00:50;62.53;;;38.90;;
40284;SDS011;25997;50.214;19.354;2022-12-18T05:03:54;45.75;;;29.85;;
40284;SDS011;25997;50.214;19.354;2022-12-18T05:06:57;47.97;;;29.45;;
40284;SDS011;25997;50.214;19.354;2022-12-18T05:09:59;50.63;;;27.65;;
40284;SDS011;25997;50.214;19.354;2022-12-18T05:13:02;47.95;;;29.95;;
40284;SDS011;25997;50.214;19.354;2022-12-18T05:16:05;48.45;;;30.20;;
40284;SDS011;25997;50.214;19.354;2022-12-18T05:19:09;48.88;;;31.90;;
40284;SDS011;25997;50.214;19.354;2022-12-18T05:22:12;45.42;;;28.05;;
40284;SDS011;25997;50.214;19.354;2022-12-18T05:25:14;50.05;;;29.98;;
40284;SDS011;25997;50.214;19.354;2022-12-18T05:28:17;53.42;;;33.58;;
40284;SDS011;25997;50.214;19.354;2022-12-18T05:31:20;49.05;;;30.23;;
40284;SDS011;25997;50.214;19.354;2022-12-18T05:34:24;48.65;;;30.65;;
40284;SDS011;25997;50.214;19.354;2022-12-18T05:37:26;52.38;;;30.13;;
40284;SDS011;25997;50.214;19.354;2022-12-18T05:40:29;52.03;;;31.00;;
40284;SDS011;25997;50.214;19.354;2022-12-18T05:43:33;47.03;;;31.27;;
40284;SDS011;25997;50.214;19.354;2022-12-18T05:46:36;54.08;;;33.58;;
40284;SDS011;25997;50.214;19.354;2022-12-18T05:49:40;48.38;;;29.52;;
40284;SDS011;25997;50.214;19.354;2022-12-18T05:52:42;51.67;;;29.73;;
40284;SDS011;25997;50.214;19.354;2022-12-18T05:55:45;50.50;;;30.60;;
40284;SDS011;25997;50.214;19.354;2022-12-18T05:58:50;67.65;;;37.90;;
40284;SDS011;25997;50.214;19.354;2022-12-18T06:01:54;136.82;;;68.25;;
40284;SDS011;25997;50.214;19.354;2022-12-18T06:04:58;191.60;;;82.60;;
40284;SDS011;25997;50.214;19.354;2022-12-18T06:08:01;146.88;;;72.82;;
40284;SDS011;25997;50.214;19.354;2022-12-18T06:11:03;118.47;;;61.83;;
40284;SDS011;25997;50.214;19.354;2022-12-18T06:14:06;100.15;;;53.95;;
40284;SDS011;25997;50.214;19.354;2022-12-18T06:17:09;72.00;;;40.88;;
40284;SDS011;25997;50.214;19.354;2022-12-18T06:20:13;85.50;;;46.25;;
40284;SDS011;25997;50.214;19.354;2022-12-18T06:23:15;71.32;;;43.47;;
40284;SDS011;25997;50.214;19.354;2022-12-18T06:26:18;62.72;;;39.08;;
40284;SDS011;25997;50.214;19.354;2022-12-18T06:29:20;69.30;;;40.22;;
40284;SDS011;25997;50.214;19.354;2022-12-18T06:32:23;101.97;;;53.53;;
40284;SDS011;25997;50.214;19.354;2022-12-18T06:35:27;127.15;;;64.88;;
40284;SDS011;25997;50.214;19.354;2022-12-18T06:38:30;176.52;;;89.32;;
40284;SDS011;25997;50.214;19.354;2022-12-18T06:41:33;154.07;;;81.82;;
40284;SDS011;25997;50.214;19.354;2022-12-18T06:44:36;152.23;;;83.53;;
40284;SDS011;25997;50.214;19.354;2022-12-18T06:47:38;134.43;;;79.90;;
40284;SDS011;25997;50.214;19.354;2022-12-18T06:50:43;93.80;;;57.90;;
40284;SDS011;25997;50.214;19.354;2022-12-18T06:53:45;93.10;;;56.03;;
40284;SDS011;25997;50.214;19.354;2022-12-18T06:56:48;89.05;;;53.50;;
40284;SDS011;25997;50.214;19.354;2022-12-18T06:59:51;72.25;;;40.47;;
40284;SDS011;25997;50.214;19.354;2022-12-18T07:02:53;65.22;;;37.15;;
40284;SDS011;25997;50.214;19.354;2022-12-18T07:05:57;69.32;;;41.08;;
40284;SDS011;25997;50.214;19.354;2022-12-18T07:09:00;67.40;;;39.83;;
40284;SDS011;25997;50.214;19.354;2022-12-18T07:12:02;63.70;;;37.67;;
40284;SDS011;25997;50.214;19.354;2022-12-18T07:15:06;66.35;;;39.83;;
40284;SDS011;25997;50.214;19.354;2022-12-18T07:18:09;75.18;;;44.50;;
40284;SDS011;25997;50.214;19.354;2022-12-18T07:21:15;82.40;;;50.22;;
40284;SDS011;25997;50.214;19.354;2022-12-18T07:24:19;82.95;;;47.95;;
40284;SDS011;25997;50.214;19.354;2022-12-18T07:27:22;166.07;;;68.45;;
40284;SDS011;25997;50.214;19.354;2022-12-18T07:30:25;125.40;;;57.70;;
40284;SDS011;25997;50.214;19.354;2022-12-18T07:33:27;98.68;;;52.20;;
40284;SDS011;25997;50.214;19.354;2022-12-18T07:36:31;102.65;;;50.30;;
40284;SDS011;25997;50.214;19.354;2022-12-18T07:39:34;83.65;;;46.03;;
40284;SDS011;25997;50.214;19.354;2022-12-18T07:42:36;76.50;;;43.53;;
40284;SDS011;25997;50.214;19.354;2022-12-18T07:45:39;82.32;;;46.80;;
40284;SDS011;25997;50.214;19.354;2022-12-18T07:48:41;90.47;;;48.92;;
40284;SDS011;25997;50.214;19.354;2022-12-18T07:51:46;85.65;;;49.05;;
40284;SDS011;25997;50.214;19.354;2022-12-18T07:54:49;70.80;;;39.97;;
40284;SDS011;25997;50.214;19.354;2022-12-18T07:57:52;74.03;;;44.22;;
40284;SDS011;25997;50.214;19.354;2022-12-18T08:01:01;71.97;;;39.92;;
40284;SDS011;25997;50.214;19.354;2022-12-18T08:04:04;66.22;;;41.72;;
40284;SDS011;25997;50.214;19.354;2022-12-18T08:07:08;65.18;;;38.67;;
40284;SDS011;25997;50.214;19.354;2022-12-18T08:10:11;62.45;;;38.42;;
40284;SDS011;25997;50.214;19.354;2022-12-18T08:13:14;63.28;;;37.70;;
40284;SDS011;25997;50.214;19.354;2022-12-18T08:16:16;65.05;;;38.10;;
40284;SDS011;25997;50.214;19.354;2022-12-18T08:19:20;61.50;;;36.05;;
40284;SDS011;25997;50.214;19.354;2022-12-18T08:22:23;58.65;;;33.78;;
40284;SDS011;25997;50.214;19.354;2022-12-18T08:25:26;62.10;;;37.50;;
40284;SDS011;25997;50.214;19.354;2022-12-18T08:28:29;62.33;;;38.50;;
40284;SDS011;25997;50.214;19.354;2022-12-18T08:31:31;76.50;;;44.88;;
40284;SDS011;25997;50.214;19.354;2022-12-18T08:34:34;65.68;;;41.78;;
40284;SDS011;25997;50.214;19.354;2022-12-18T08:37:39;61.00;;;36.35;;
40284;SDS011;25997;50.214;19.354;2022-12-18T08:40:41;60.85;;;34.65;;
40284;SDS011;25997;50.214;19.354;2022-12-18T08:43:44;60.50;;;32.97;;
40284;SDS011;25997;50.214;19.354;2022-12-18T08:47:03;63.40;;;37.33;;
40284;SDS011;25997;50.214;19.354;2022-12-18T08:50:07;65.45;;;37.72;;
40284;SDS011;25997;50.214;19.354;2022-12-18T08:53:13;56.42;;;34.38;;
40284;SDS011;25997;50.214;19.354;2022-12-18T08:56:15;55.65;;;32.97;;
40284;SDS011;25997;50.214;19.354;2022-12-18T08:59:18;61.17;;;37.75;;
40284;SDS011;25997;50.214;19.354;2022-12-18T09:02:21;58.25;;;35.20;;
40284;SDS011;25997;50.214;19.354;2022-12-18T09:05:23;62.72;;;37.38;;
40284;SDS011;25997;50.214;19.354;2022-12-18T09:08:27;62.92;;;36.05;;
40284;SDS011;25997;50.214;19.354;2022-12-18T09:11:30;62.10;;;40.05;;
40284;SDS011;25997;50.214;19.354;2022-12-18T09:14:34;64.07;;;36.08;;
40284;SDS011;25997;50.214;19.354;2022-12-18T09:17:36;54.53;;;34.72;;
40284;SDS011;25997;50.214;19.354;2022-12-18T09:20:39;60.05;;;36.03;;
40284;SDS011;25997;50.214;19.354;2022-12-18T09:23:44;64.45;;;35.30;;
40284;SDS011;25997;50.214;19.354;2022-12-18T09:26:52;60.60;;;34.60;;
40284;SDS011;25997;50.214;19.354;2022-12-18T09:29:55;51.88;;;34.53;;
40284;SDS011;25997;50.214;19.354;2022-12-18T09:32:58;56.13;;;35.00;;
40284;SDS011;25997;50.214;19.354;2022-12-18T09:36:00;52.28;;;34.00;;
40284;SDS011;25997;50.214;19.354;2022-12-18T09:39:05;55.20;;;35.42;;
40284;SDS011;25997;50.214;19.354;2022-12-18T09:42:09;54.50;;;34.15;;
40284;SDS011;25997;50.214;19.354;2022-12-18T09:45:21;65.63;;;40.83;;
40284;SDS011;25997;50.214;19.354;2022-12-18T09:48:25;38.15;;;24.58;;
40284;SDS011;25997;50.214;19.354;2022-12-18T09:51:32;56.22;;;36.08;;
40284;SDS011;25997;50.214;19.354;2022-12-18T09:54:41;40.05;;;28.48;;
40284;SDS011;25997;50.214;19.354;2022-12-18T09:57:47;52.58;;;34.42;;
40284;SDS011;25997;50.214;19.354;2022-12-18T10:00:54;57.78;;;36.05;;
40284;SDS011;25997;50.214;19.354;2022-12-18T10:03:57;65.60;;;40.95;;
40284;SDS011;25997;50.214;19.354;2022-12-18T10:07:02;49.00;;;33.97;;
40284;SDS011;25997;50.214;19.354;2022-12-18T10:10:14;60.40;;;44.88;;
40284;SDS011;25997;50.214;19.354;2022-12-18T10:13:26;37.00;;;24.58;;
40284;SDS011;25997;50.214;19.354;2022-12-18T10:16:35;31.48;;;21.10;;
40284;SDS011;25997;50.214;19.354;2022-12-18T10:19:44;31.20;;;21.05;;
40284;SDS011;25997;50.214;19.354;2022-12-18T10:22:53;30.20;;;18.73;;
40284;SDS011;25997;50.214;19.354;2022-12-18T10:26:04;26.42;;;18.73;;
40284;SDS011;25997;50.214;19.354;2022-12-18T10:29:10;67.93;;;36.10;;
40284;SDS011;25997;50.214;19.354;2022-12-18T10:32:15;41.55;;;25.65;;
40284;SDS011;25997;50.214;19.354;2022-12-18T10:35:22;53.95;;;34.75;;
40284;SDS011;25997;50.214;19.354;2022-12-18T10:38:26;37.50;;;25.55;;
40284;SDS011;25997;50.214;19.354;2022-12-18T10:41:31;37.20;;;22.80;;
40284;SDS011;25997;50.214;19.354;2022-12-18T10:44:33;33.13;;;21.00;;
40284;SDS011;25997;50.214;19.354;2022-12-18T10:47:36;33.40;;;21.02;;
40284;SDS011;25997;50.214;19.354;2022-12-18T10:50:45;35.72;;;23.83;;
40284;SDS011;25997;50.214;19.354;2022-12-18T10:53:54;38.03;;;24.27;;
40284;SDS011;25997;50.214;19.354;2022-12-18T10:57:15;44.10;;;28.10;;
40284;SDS011;25997;50.214;19.354;2022-12-18T11:00:20;43.05;;;28.00;;
40284;SDS011;25997;50.214;19.354;2022-12-18T11:03:29;43.85;;;28.35;;
40284;SDS011;25997;50.214;19.354;2022-12-18T11:06:33;59.65;;;36.05;;
40284;SDS011;25997;50.214;19.354;2022-12-18T11:09:36;52.53;;;32.90;;
40284;SDS011;25997;50.214;19.354;2022-12-18T11:12:41;46.78;;;29.33;;
40284;SDS011;25997;50.214;19.354;2022-12-18T11:15:43;49.95;;;33.33;;
40284;SDS011;25997;50.214;19.354;2022-12-18T11:18:46;35.40;;;23.08;;
40284;SDS011;25997;50.214;19.354;2022-12-18T11:21:49;56.50;;;39.92;;
40284;SDS011;25997;50.214;19.354;2022-12-18T11:24:52;40.80;;;26.58;;
40284;SDS011;25997;50.214;19.354;2022-12-18T11:28:00;40.33;;;27.70;;
40284;SDS011;25997;50.214;19.354;2022-12-18T11:31:18;37.72;;;24.05;;
40284;SDS011;25997;50.214;19.354;2022-12-18T11:34:26;42.10;;;29.60;;
40284;SDS011;25997;50.214;19.354;2022-12-18T11:37:32;92.03;;;51.10;;
40284;SDS011;25997;50.214;19.354;2022-12-18T11:40:36;40.10;;;25.80;;
40284;SDS011;25997;50.214;19.354;2022-12-18T11:43:42;47.15;;;31.13;;
40284;SDS011;25997;50.214;19.354;2022-12-18T11:46:51;55.47;;;33.88;;
40284;SDS011;25997;50.214;19.354;2022-12-18T11:50:02;43.67;;;28.38;;
40284;SDS011;25997;50.214;19.354;2022-12-18T11:53:14;40.20;;;27.27;;
40284;SDS011;25997;50.214;19.354;2022-12-18T11:56:27;38.58;;;25.13;;
40284;SDS011;25997;50.214;19.354;2022-12-18T11:59:37;36.83;;;24.67;;
40284;SDS011;25997;50.214;19.354;2022-12-18T12:03:03;35.92;;;24.65;;
40284;SDS011;25997;50.214;19.354;2022-12-18T12:06:20;38.72;;;25.52;;
40284;SDS011;25997;50.214;19.354;2022-12-18T12:09:31;42.92;;;26.17;;
40284;SDS011;25997;50.214;19.354;2022-12-18T12:12:44;47.42;;;30.90;;
40284;SDS011;25997;50.214;19.354;2022-12-18T12:16:03;48.80;;;32.50;;
40284;SDS011;25997;50.214;19.354;2022-12-18T12:19:17;48.85;;;31.67;;
40284;SDS011;25997;50.214;19.354;2022-12-18T12:22:32;40.40;;;26.73;;
40284;SDS011;25997;50.214;19.354;2022-12-18T12:25:44;34.08;;;23.58;;
40284;SDS011;25997;50.214;19.354;2022-12-18T12:28:59;37.25;;;23.63;;
40284;SDS011;25997;50.214;19.354;2022-12-18T12:32:11;37.25;;;24.40;;
40284;SDS011;25997;50.214;19.354;2022-12-18T12:35:25;37.50;;;24.40;;
40284;SDS011;25997;50.214;19.354;2022-12-18T12:38:34;38.15;;;24.23;;
40284;SDS011;25997;50.214;19.354;2022-12-18T12:41:39;34.50;;;24.65;;
40284;SDS011;25997;50.214;19.354;2022-12-18T12:45:01;41.13;;;28.38;;
40284;SDS011;25997;50.214;19.354;2022-12-18T12:48:10;39.95;;;28.23;;
40284;SDS011;25997;50.214;19.354;2022-12-18T12:51:19;38.25;;;26.13;;
40284;SDS011;25997;50.214;19.354;2022-12-18T12:54:24;39.83;;;25.30;;
40284;SDS011;25997;50.214;19.354;2022-12-18T12:57:30;38.60;;;27.27;;
40284;SDS011;25997;50.214;19.354;2022-12-18T13:00:38;41.38;;;26.48;;
40284;SDS011;25997;50.214;19.354;2022-12-18T13:06:58;42.47;;;26.42;;
40284;SDS011;25997;50.214;19.354;2022-12-18T13:13:37;40.08;;;24.30;;
40284;SDS011;25997;50.214;19.354;2022-12-18T13:16:49;36.53;;;25.13;;
40284;SDS011;25997;50.214;19.354;2022-12-18T13:20:03;39.85;;;24.35;;
40284;SDS011;25997;50.214;19.354;2022-12-18T13:23:25;36.58;;;24.52;;
40284;SDS011;25997;50.214;19.354;2022-12-18T13:26:31;34.97;;;24.38;;
40284;SDS011;25997;50.214;19.354;2022-12-18T13:29:41;35.08;;;23.27;;
40284;SDS011;25997;50.214;19.354;2022-12-18T13:32:45;33.35;;;25.10;;
40284;SDS011;25997;50.214;19.354;2022-12-18T13:35:52;34.90;;;23.33;;
40284;SDS011;25997;50.214;19.354;2022-12-18T13:39:21;40.70;;;24.13;;
40284;SDS011;25997;50.214;19.354;2022-12-18T13:42:40;41.17;;;26.40;;
40284;SDS011;25997;50.214;19.354;2022-12-18T13:46:01;40.92;;;26.88;;
40284;SDS011;25997;50.214;19.354;2022-12-18T13:49:15;54.83;;;36.28;;
40284;SDS011;25997;50.214;19.354;2022-12-18T13:52:25;55.83;;;33.38;;
40284;SDS011;25997;50.214;19.354;2022-12-18T13:55:29;55.05;;;35.92;;
40284;SDS011;25997;50.214;19.354;2022-12-18T13:58:32;53.25;;;36.97;;
40284;SDS011;25997;50.214;19.354;2022-12-18T14:01:35;61.70;;;43.40;;
40284;SDS011;25997;50.214;19.354;2022-12-18T14:04:37;58.22;;;39.80;;
40284;SDS011;25997;50.214;19.354;2022-12-18T14:07:41;60.35;;;40.97;;
40284;SDS011;25997;50.214;19.354;2022-12-18T14:10:45;56.72;;;38.40;;
40284;SDS011;25997;50.214;19.354;2022-12-18T14:13:49;55.63;;;35.55;;
40284;SDS011;25997;50.214;19.354;2022-12-18T14:16:52;49.10;;;34.97;;
40284;SDS011;25997;50.214;19.354;2022-12-18T14:19:55;44.13;;;29.80;;
40284;SDS011;25997;50.214;19.354;2022-12-18T14:22:59;38.75;;;25.90;;
40284;SDS011;25997;50.214;19.354;2022-12-18T14:26:03;40.08;;;24.27;;
40284;SDS011;25997;50.214;19.354;2022-12-18T14:29:24;38.47;;;23.80;;
40284;SDS011;25997;50.214;19.354;2022-12-18T14:32:28;37.92;;;24.52;;
40284;SDS011;25997;50.214;19.354;2022-12-18T14:35:31;40.50;;;27.95;;
40284;SDS011;25997;50.214;19.354;2022-12-18T14:38:36;44.55;;;29.90;;
40284;SDS011;25997;50.214;19.354;2022-12-18T14:41:39;45.13;;;29.27;;
40284;SDS011;25997;50.214;19.354;2022-12-18T14:44:42;47.17;;;30.05;;
40284;SDS011;25997;50.214;19.354;2022-12-18T14:47:44;45.30;;;28.38;;
40284;SDS011;25997;50.214;19.354;2022-12-18T14:50:54;46.70;;;28.48;;
40284;SDS011;25997;50.214;19.354;2022-12-18T14:54:00;44.05;;;26.25;;
40284;SDS011;25997;50.214;19.354;2022-12-18T14:57:05;41.28;;;24.92;;
40284;SDS011;25997;50.214;19.354;2022-12-18T15:00:16;37.78;;;23.92;;
40284;SDS011;25997;50.214;19.354;2022-12-18T15:03:21;36.90;;;22.33;;
40284;SDS011;25997;50.214;19.354;2022-12-18T15:06:28;37.10;;;21.48;;
40284;SDS011;25997;50.214;19.354;2022-12-18T15:09:34;39.60;;;22.42;;
40284;SDS011;25997;50.214;19.354;2022-12-18T15:12:37;44.47;;;22.95;;
40284;SDS011;25997;50.214;19.354;2022-12-18T15:15:45;40.92;;;24.45;;
40284;SDS011;25997;50.214;19.354;2022-12-18T15:18:48;37.53;;;22.77;;
40284;SDS011;25997;50.214;19.354;2022-12-18T15:21:51;41.78;;;24.65;;
40284;SDS011;25997;50.214;19.354;2022-12-18T15:24:55;70.10;;;37.90;;
40284;SDS011;25997;50.214;19.354;2022-12-18T15:28:02;62.75;;;35.22;;
40284;SDS011;25997;50.214;19.354;2022-12-18T15:31:17;64.55;;;38.20;;
40284;SDS011;25997;50.214;19.354;2022-12-18T15:34:24;72.13;;;38.53;;
40284;SDS011;25997;50.214;19.354;2022-12-18T15:37:27;59.08;;;34.95;;
40284;SDS011;25997;50.214;19.354;2022-12-18T15:40:31;54.88;;;35.35;;
40284;SDS011;25997;50.214;19.354;2022-12-18T15:43:37;64.90;;;36.78;;
40284;SDS011;25997;50.214;19.354;2022-12-18T15:46:40;63.40;;;38.25;;
40284;SDS011;25997;50.214;19.354;2022-12-18T15:49:42;61.95;;;35.80;;
40284;SDS011;25997;50.214;19.354;2022-12-18T15:52:45;64.07;;;36.75;;
40284;SDS011;25997;50.214;19.354;2022-12-18T15:55:52;72.03;;;40.05;;
40284;SDS011;25997;50.214;19.354;2022-12-18T15:59:12;80.20;;;41.42;;
40284;SDS011;25997;50.214;19.354;2022-12-18T16:02:19;92.45;;;44.92;;
40284;SDS011;25997;50.214;19.354;2022-12-18T16:05:26;68.45;;;40.13;;
40284;SDS011;25997;50.214;19.354;2022-12-18T16:08:30;84.18;;;41.40;;
40284;SDS011;25997;50.214;19.354;2022-12-18T16:11:34;84.85;;;42.70;;
40284;SDS011;25997;50.214;19.354;2022-12-18T16:14:42;76.63;;;42.97;;
40284;SDS011;25997;50.214;19.354;2022-12-18T16:17:45;81.50;;;44.70;;
40284;SDS011;25997;50.214;19.354;2022-12-18T16:20:48;80.95;;;47.58;;
40284;SDS011;25997;50.214;19.354;2022-12-18T16:23:51;80.32;;;46.20;;
40284;SDS011;25997;50.214;19.354;2022-12-18T16:26:55;90.93;;;46.85;;
40284;SDS011;25997;50.214;19.354;2022-12-18T16:29:59;106.40;;;51.85;;
40284;SDS011;25997;50.214;19.354;2022-12-18T16:33:05;140.25;;;68.55;;
40284;SDS011;25997;50.214;19.354;2022-12-18T16:36:07;129.27;;;67.05;;
40284;SDS011;25997;50.214;19.354;2022-12-18T16:39:18;133.00;;;67.78;;
40284;SDS011;25997;50.214;19.354;2022-12-18T16:42:25;116.93;;;64.43;;
40284;SDS011;25997;50.214;19.354;2022-12-18T16:45:30;128.02;;;81.40;;
40284;SDS011;25997;50.214;19.354;2022-12-18T16:48:33;145.07;;;89.00;;
40284;SDS011;25997;50.214;19.354;2022-12-18T16:51:36;129.70;;;83.10;;
40284;SDS011;25997;50.214;19.354;2022-12-18T16:54:38;112.38;;;62.22;;
40284;SDS011;25997;50.214;19.354;2022-12-18T16:57:42;85.32;;;49.67;;
40284;SDS011;25997;50.214;19.354;2022-12-18T17:00:45;87.43;;;50.47;;
40284;SDS011;25997;50.214;19.354;2022-12-18T17:03:51;82.47;;;49.00;;
40284;SDS011;25997;50.214;19.354;2022-12-18T17:06:57;82.43;;;44.22;;
40284;SDS011;25997;50.214;19.354;2022-12-18T17:09:59;67.35;;;40.00;;
40284;SDS011;25997;50.214;19.354;2022-12-18T17:13:03;86.70;;;47.80;;
40284;SDS011;25997;50.214;19.354;2022-12-18T17:16:06;94.30;;;47.00;;
40284;SDS011;25997;50.214;19.354;2022-12-18T17:19:10;86.43;;;46.28;;
40284;SDS011;25997;50.214;19.354;2022-12-18T17:22:13;77.35;;;43.55;;
40284;SDS011;25997;50.214;19.354;2022-12-18T17:25:15;86.40;;;52.38;;
40284;SDS011;25997;50.214;19.354;2022-12-18T17:28:28;74.10;;;45.17;;
40284;SDS011;25997;50.214;19.354;2022-12-18T17:31:31;69.03;;;40.13;;
40284;SDS011;25997;50.214;19.354;2022-12-18T17:34:34;62.00;;;35.22;;
40284;SDS011;25997;50.214;19.354;2022-12-18T17:37:37;56.67;;;31.80;;
40284;SDS011;25997;50.214;19.354;2022-12-18T17:40:43;53.17;;;32.42;;
40284;SDS011;25997;50.214;19.354;2022-12-18T17:43:50;57.25;;;33.80;;
40284;SDS011;25997;50.214;19.354;2022-12-18T17:46:54;53.08;;;30.00;;
40284;SDS011;25997;50.214;19.354;2022-12-18T17:49:58;56.55;;;32.13;;
40284;SDS011;25997;50.214;19.354;2022-12-18T17:53:01;51.45;;;29.20;;
40284;SDS011;25997;50.214;19.354;2022-12-18T17:56:06;58.95;;;31.27;;
40284;SDS011;25997;50.214;19.354;2022-12-18T17:59:12;52.17;;;27.85;;
40284;SDS011;25997;50.214;19.354;2022-12-18T18:02:17;52.75;;;28.95;;